createdAt,value
2023-01-21T00:00:59.480Z,31.17
2023-01-21T00:03:26.399Z,31.93
2023-01-21T00:05:53.315Z,30.93
2023-01-21T00:08:20.346Z,31.97
2023-01-21T00:10:47.265Z,30.87
2023-01-21T00:13:14.208Z,31.20
2023-01-21T00:15:41.318Z,30.70
2023-01-21T00:18:08.827Z,30.57
2023-01-21T00:20:35.730Z,30.40
2023-01-21T00:23:03.068Z,31.63
2023-01-21T00:25:29.814Z,30.50
2023-01-21T00:27:56.739Z,29.53
2023-01-21T00:30:23.650Z,31.90
2023-01-21T00:32:50.555Z,30.60
2023-01-21T00:35:17.390Z,27.53
2023-01-21T00:37:44.137Z,28.93
2023-01-21T00:40:11.460Z,27.30
2023-01-21T00:42:38.436Z,29.40
2023-01-21T00:45:05.786Z,30.07
2023-01-21T00:47:32.551Z,30.00
2023-01-21T00:49:59.318Z,26.77
2023-01-21T00:52:26.220Z,28.50
2023-01-21T00:54:53.040Z,27.07
2023-01-21T00:57:19.880Z,27.20
2023-01-21T00:59:47.092Z,25.87
2023-01-21T01:02:14.085Z,28.77
2023-01-21T01:04:40.922Z,27.60
2023-01-21T01:07:07.947Z,25.27
2023-01-21T01:09:34.768Z,28.07
2023-01-21T01:12:01.578Z,26.93
2023-01-21T01:14:29.990Z,27.23
2023-01-21T01:16:56.865Z,25.70
2023-01-21T01:19:25.008Z,24.87
2023-01-21T01:21:51.789Z,26.07
2023-01-21T01:24:18.632Z,26.70
2023-01-21T01:26:45.633Z,24.10
2023-01-21T01:29:16.063Z,25.23
2023-01-21T01:31:44.196Z,24.63
2023-01-21T01:34:11.094Z,24.57
2023-01-21T01:36:37.871Z,24.37
2023-01-21T01:39:05.838Z,24.70
2023-01-21T01:41:35.248Z,24.00
2023-01-21T01:44:05.192Z,25.03
2023-01-21T01:46:35.361Z,24.43
2023-01-21T01:49:16.909Z,23.83
2023-01-21T01:51:51.585Z,24.37
2023-01-21T01:54:24.540Z,25.40
2023-01-21T01:56:56.460Z,24.63
2023-01-21T01:59:24.104Z,25.07
2023-01-21T02:01:51.421Z,24.20
2023-01-21T02:04:23.177Z,23.63
2023-01-21T02:06:52.380Z,23.47
2023-01-21T02:09:19.399Z,23.97
2023-01-21T02:11:46.299Z,24.30
2023-01-21T02:14:13.336Z,24.03
2023-01-21T02:17:02.981Z,23.43
2023-01-21T02:19:38.935Z,24.00
2023-01-21T02:22:22.966Z,23.00
2023-01-21T02:25:08.561Z,22.43
2023-01-21T02:28:07.385Z,22.03
2023-01-21T02:30:55.161Z,22.83
2023-01-21T02:33:38.184Z,21.63
2023-01-21T02:36:17.468Z,22.60
2023-01-21T02:39:10.741Z,21.90
2023-01-21T02:41:46.976Z,24.10
2023-01-21T02:44:24.905Z,23.27
2023-01-21T02:47:13.673Z,21.60
2023-01-21T02:49:44.361Z,22.60
2023-01-21T02:52:22.248Z,21.97
2023-01-21T02:54:55.032Z,22.00
2023-01-21T02:57:49.768Z,22.70
2023-01-21T03:00:24.723Z,22.80
2023-01-21T03:03:16.531Z,24.10
2023-01-21T03:06:08.086Z,23.67
2023-01-21T03:09:19.998Z,23.07
2023-01-21T03:11:56.737Z,23.13
2023-01-21T03:14:48.864Z,22.67
2023-01-21T03:17:41.621Z,23.20
2023-01-21T03:20:13.152Z,24.37
2023-01-21T03:22:40.582Z,23.87
2023-01-21T03:25:13.413Z,23.93
2023-01-21T03:27:44.900Z,24.37
2023-01-21T03:30:18.258Z,23.20
2023-01-21T03:32:49.685Z,23.87
2023-01-21T03:35:47.527Z,26.37
2023-01-21T03:38:30.637Z,23.77
2023-01-21T03:41:03.225Z,24.53
2023-01-21T03:43:30.107Z,25.77
2023-01-21T03:46:22.925Z,25.13
2023-01-21T03:48:56.936Z,25.57
2023-01-21T03:51:29.564Z,26.03
2023-01-21T03:53:57.876Z,26.50
2023-01-21T03:56:26.419Z,26.83
2023-01-21T03:58:53.596Z,25.57
2023-01-21T04:01:20.685Z,26.97
2023-01-21T04:03:47.472Z,26.30
2023-01-21T04:06:16.388Z,26.40
2023-01-21T04:08:43.314Z,27.63
2023-01-21T04:11:10.272Z,26.27
2023-01-21T04:13:36.976Z,26.37
2023-01-21T04:16:04.832Z,26.80
2023-01-21T04:18:32.049Z,26.43
2023-01-21T04:20:59.027Z,26.90
2023-01-21T04:23:25.879Z,27.10
2023-01-21T04:25:53.587Z,26.03
2023-01-21T04:28:20.529Z,28.00
2023-01-21T04:30:47.928Z,25.03
2023-01-21T04:33:14.942Z,26.67
2023-01-21T04:35:41.691Z,27.07
2023-01-21T04:38:08.487Z,26.13
2023-01-21T04:40:37.738Z,26.73
2023-01-21T04:43:04.504Z,26.30
2023-01-21T04:45:31.332Z,26.10
2023-01-21T04:47:58.314Z,26.07
2023-01-21T04:50:25.572Z,25.70
2023-01-21T04:52:52.451Z,26.53
2023-01-21T04:55:19.639Z,25.40
2023-01-21T04:57:46.475Z,25.07
2023-01-21T05:00:13.803Z,25.90
2023-01-21T05:02:40.973Z,26.50
2023-01-21T05:05:08.145Z,24.87
2023-01-21T05:07:35.287Z,24.33
2023-01-21T05:10:02.041Z,25.03
2023-01-21T05:12:29.109Z,24.70
2023-01-21T05:14:59.293Z,25.13
2023-01-21T05:17:26.448Z,26.43
2023-01-21T05:19:53.482Z,25.30
2023-01-21T05:22:20.473Z,25.00
2023-01-21T05:24:47.216Z,25.00
2023-01-21T05:27:14.069Z,25.63
2023-01-21T05:29:40.887Z,25.73
2023-01-21T05:32:07.730Z,25.37
2023-01-21T05:34:34.522Z,24.40
2023-01-21T05:37:01.290Z,24.37
2023-01-21T05:39:28.091Z,24.63
2023-01-21T05:41:54.826Z,23.70
2023-01-21T05:44:21.595Z,24.13
2023-01-21T05:46:48.576Z,24.10
2023-01-21T05:49:15.646Z,25.07
2023-01-21T05:51:42.433Z,22.73
2023-01-21T05:54:09.151Z,23.60
2023-01-21T05:56:35.893Z,23.03
2023-01-21T05:59:03.005Z,24.33
2023-01-21T06:01:29.780Z,22.73
2023-01-21T06:03:56.683Z,22.70
2023-01-21T06:06:23.466Z,22.97
2023-01-21T06:08:50.229Z,23.33
2023-01-21T06:11:18.417Z,23.97
2023-01-21T06:13:45.166Z,22.63
2023-01-21T06:16:12.213Z,22.90
2023-01-21T06:18:39.586Z,23.13
2023-01-21T06:21:06.581Z,22.73
2023-01-21T06:23:33.433Z,22.27
2023-01-21T06:26:03.684Z,21.87
2023-01-21T06:28:31.129Z,21.93
2023-01-21T06:30:58.008Z,22.10
2023-01-21T06:33:25.155Z,23.33
2023-01-21T06:35:51.993Z,22.07
2023-01-21T06:38:18.802Z,21.60
2023-01-21T06:40:45.671Z,21.50
2023-01-21T06:43:12.723Z,22.80
2023-01-21T06:45:39.536Z,21.80
2023-01-21T06:48:06.380Z,21.63
2023-01-21T06:50:33.334Z,21.37
2023-01-21T06:53:00.272Z,21.53
2023-01-21T06:55:27.075Z,23.33
2023-01-21T06:57:54.032Z,21.87
2023-01-21T07:00:21.435Z,22.40
2023-01-21T07:02:48.924Z,22.83
2023-01-21T07:05:16.395Z,22.57
2023-01-21T07:07:43.342Z,22.13
2023-01-21T07:10:10.873Z,22.77
2023-01-21T07:12:37.816Z,20.57
2023-01-21T07:15:05.302Z,20.87
2023-01-21T07:17:32.797Z,23.43
2023-01-21T07:19:59.628Z,22.30
2023-01-21T07:22:26.430Z,21.83
2023-01-21T07:24:53.225Z,21.97
2023-01-21T07:27:19.985Z,21.93
2023-01-21T07:29:46.794Z,20.63
2023-01-21T07:32:13.540Z,23.33
2023-01-21T07:34:40.407Z,21.10
2023-01-21T07:37:07.203Z,20.47
2023-01-21T07:39:34.036Z,21.30
2023-01-21T07:42:00.956Z,21.43
2023-01-21T07:44:27.815Z,21.07
2023-01-21T07:46:54.777Z,21.03
2023-01-21T07:49:21.529Z,21.30
2023-01-21T07:51:48.493Z,21.00
2023-01-21T07:54:15.923Z,21.13
2023-01-21T07:56:43.169Z,20.43
2023-01-21T07:59:11.584Z,19.93
2023-01-21T08:01:38.437Z,21.17
2023-01-21T08:04:07.101Z,20.50
2023-01-21T08:06:34.237Z,22.23
2023-01-21T08:09:01.289Z,22.83
2023-01-21T08:11:28.074Z,23.20
2023-01-21T08:13:54.847Z,22.83
2023-01-21T08:16:21.990Z,21.40
2023-01-21T08:18:48.802Z,23.00
2023-01-21T08:21:15.600Z,22.37
2023-01-21T08:23:42.381Z,23.40
2023-01-21T08:26:09.233Z,23.10
2023-01-21T08:28:36.251Z,22.47
2023-01-21T08:31:05.845Z,22.47
2023-01-21T08:33:33.233Z,21.43
2023-01-21T08:36:06.317Z,23.30
2023-01-21T08:38:34.910Z,23.60
2023-01-21T08:41:01.952Z,21.90
2023-01-21T08:43:28.726Z,22.40
2023-01-21T08:45:56.805Z,23.77
2023-01-21T08:48:24.049Z,23.13
2023-01-21T08:50:50.949Z,22.83
2023-01-21T08:53:17.760Z,22.67
2023-01-21T08:55:44.924Z,22.93
2023-01-21T08:58:11.729Z,23.17
2023-01-21T09:00:38.662Z,21.53
2023-01-21T09:03:05.440Z,23.43
2023-01-21T09:05:32.258Z,24.77
2023-01-21T09:07:59.093Z,23.73
2023-01-21T09:10:44.426Z,24.00
2023-01-21T09:13:11.540Z,23.67
2023-01-21T09:15:40.116Z,23.50
2023-01-21T09:18:07.747Z,23.80
2023-01-21T09:20:35.512Z,24.80
2023-01-21T09:23:02.277Z,23.80
2023-01-21T09:25:29.221Z,25.10
2023-01-21T09:27:56.200Z,24.03
2023-01-21T09:30:23.046Z,23.20
2023-01-21T09:32:49.892Z,25.67
2023-01-21T09:35:16.922Z,25.70
2023-01-21T09:37:43.845Z,23.87
2023-01-21T09:40:16.264Z,24.10
2023-01-21T09:42:43.213Z,25.70
2023-01-21T09:45:14.751Z,26.37
2023-01-21T09:47:45.000Z,26.20
2023-01-21T09:50:16.785Z,25.27
2023-01-21T09:52:53.147Z,23.00
2023-01-21T09:55:27.279Z,24.57
2023-01-21T09:58:23.602Z,25.70
2023-01-21T10:01:09.600Z,26.27
2023-01-21T10:04:02.787Z,25.37
2023-01-21T10:06:54.799Z,26.10
2023-01-21T10:09:24.778Z,25.70
2023-01-21T10:12:03.304Z,26.27
2023-01-21T10:15:16.081Z,24.87
2023-01-21T10:17:57.649Z,25.07
2023-01-21T10:20:35.351Z,26.60
2023-01-21T10:23:29.445Z,26.27
2023-01-21T10:26:01.793Z,25.83
2023-01-21T10:28:32.411Z,26.87
2023-01-21T10:31:06.527Z,24.93
2023-01-21T10:33:34.424Z,25.20
2023-01-21T10:36:04.425Z,25.77
2023-01-21T10:38:54.282Z,26.63
2023-01-21T10:41:26.557Z,26.13
2023-01-21T10:44:18.248Z,25.83
2023-01-21T10:46:51.803Z,23.80
2023-01-21T10:49:44.140Z,25.30
2023-01-21T10:52:43.378Z,22.97
2023-01-21T10:55:42.935Z,22.33
2023-01-21T10:58:25.598Z,23.67
2023-01-21T11:00:54.175Z,21.33
2023-01-21T11:03:43.887Z,22.73
2023-01-21T11:06:13.681Z,21.47
2023-01-21T11:08:43.143Z,22.30
2023-01-21T11:11:10.665Z,22.97
2023-01-21T11:13:37.523Z,20.87
2023-01-21T11:16:05.184Z,21.00
2023-01-21T11:18:35.902Z,20.57
2023-01-21T11:21:20.866Z,20.80
2023-01-21T11:23:59.885Z,20.63
2023-01-21T11:26:35.086Z,20.13
2023-01-21T11:29:13.024Z,19.93
2023-01-21T11:31:42.276Z,19.07
2023-01-21T11:34:18.280Z,18.27
2023-01-21T11:37:23.140Z,18.73
2023-01-21T11:39:56.736Z,18.07
2023-01-21T11:42:24.318Z,16.57
2023-01-21T11:45:07.364Z,17.57
2023-01-21T11:47:48.764Z,15.77
2023-01-21T11:50:26.062Z,17.17
2023-01-21T11:53:12.345Z,17.40
2023-01-21T11:55:46.909Z,15.10
2023-01-21T11:58:30.180Z,14.20
2023-01-21T12:00:59.581Z,12.17
2023-01-21T12:03:48.428Z,13.00
2023-01-21T12:06:22.307Z,13.33
2023-01-21T12:08:52.280Z,15.97
2023-01-21T12:11:25.068Z,14.43
2023-01-21T12:14:27.941Z,12.53
2023-01-21T12:17:13.522Z,12.53
2023-01-21T12:20:13.739Z,11.17
2023-01-21T12:22:46.518Z,12.73
2023-01-21T12:25:40.748Z,12.27
2023-01-21T12:28:17.354Z,10.47
2023-01-21T12:31:11.225Z,11.77
2023-01-21T12:33:58.616Z,11.10
2023-01-21T12:36:29.698Z,9.97
2023-01-21T12:39:17.970Z,10.10
2023-01-21T12:41:51.217Z,8.33
2023-01-21T12:44:31.413Z,8.83
2023-01-21T12:47:05.650Z,8.40
2023-01-21T12:49:59.829Z,8.27
2023-01-21T12:52:42.023Z,8.07
2023-01-21T12:55:22.889Z,6.80
2023-01-21T12:58:05.929Z,6.77
2023-01-21T13:00:36.753Z,5.93
2023-01-21T13:03:21.293Z,6.17
2023-01-21T13:06:12.470Z,6.40
2023-01-21T13:09:11.685Z,6.40
2023-01-21T13:12:00.493Z,6.77
2023-01-21T13:14:34.425Z,6.70
2023-01-21T13:17:10.025Z,6.60
2023-01-21T13:19:36.971Z,6.73
2023-01-21T13:22:11.022Z,6.27
2023-01-21T13:24:56.337Z,7.30
2023-01-21T13:27:34.679Z,7.67
2023-01-21T13:30:07.599Z,7.40
2023-01-21T13:33:17.607Z,7.77
2023-01-21T13:35:56.494Z,8.27
2023-01-21T13:38:23.261Z,8.30
2023-01-21T13:41:05.694Z,8.63
2023-01-21T13:43:57.596Z,9.40
2023-01-21T13:46:48.786Z,8.53
2023-01-21T13:49:34.812Z,9.20
2023-01-21T13:52:01.704Z,11.10
2023-01-21T13:54:47.006Z,9.80
2023-01-21T13:57:31.736Z,9.53
2023-01-21T14:00:13.216Z,10.00
2023-01-21T14:03:04.579Z,9.13
2023-01-21T14:05:53.026Z,10.07
2023-01-21T14:08:38.806Z,10.30
2023-01-21T14:11:11.979Z,11.10
2023-01-21T14:13:44.931Z,9.53
2023-01-21T14:16:35.966Z,10.03
2023-01-21T14:19:16.954Z,10.00
2023-01-21T14:21:52.706Z,10.03
2023-01-21T14:24:46.592Z,9.67
2023-01-21T14:27:16.689Z,9.50
2023-01-21T14:30:21.177Z,10.40
2023-01-21T14:32:55.642Z,10.23
2023-01-21T14:35:28.499Z,10.27
2023-01-21T14:38:02.034Z,9.57
2023-01-21T14:40:35.216Z,9.50
2023-01-21T14:43:02.384Z,9.03
2023-01-21T14:45:55.480Z,9.17
2023-01-21T14:48:45.659Z,9.50
2023-01-21T14:51:20.555Z,9.00
2023-01-21T14:53:50.283Z,8.27
2023-01-21T14:56:31.805Z,8.77
2023-01-21T14:59:24.685Z,9.43
2023-01-21T15:02:01.929Z,8.50
2023-01-21T15:04:33.373Z,7.80
2023-01-21T15:07:09.616Z,8.67
2023-01-21T15:09:42.085Z,8.93
2023-01-21T15:12:21.327Z,7.83
2023-01-21T15:14:49.527Z,8.70
2023-01-21T15:17:53.950Z,8.13
2023-01-21T15:20:42.583Z,7.80
2023-01-21T15:23:30.022Z,8.13
2023-01-21T15:26:18.468Z,9.27
2023-01-21T15:28:55.876Z,8.50
2023-01-21T15:31:25.348Z,8.93
2023-01-21T15:33:54.055Z,8.07
2023-01-21T15:36:41.417Z,8.83
2023-01-21T15:39:25.251Z,9.13
2023-01-21T15:42:44.986Z,9.17
2023-01-21T15:45:33.143Z,9.47
2023-01-21T15:48:42.246Z,9.77
2023-01-21T15:51:37.354Z,10.63
2023-01-21T15:54:42.219Z,11.03
2023-01-21T15:57:21.610Z,11.33
2023-01-21T15:59:58.825Z,11.33
2023-01-21T16:02:32.554Z,10.90
2023-01-21T16:05:25.196Z,12.30
2023-01-21T16:08:08.739Z,14.07
2023-01-21T16:10:47.571Z,12.70
2023-01-21T16:13:45.158Z,12.80
2023-01-21T16:16:18.345Z,13.27
2023-01-21T16:19:04.416Z,14.43
2023-01-21T16:21:35.393Z,13.40
2023-01-21T16:24:11.930Z,13.80
2023-01-21T16:26:38.949Z,14.37
2023-01-21T16:29:11.358Z,13.87
2023-01-21T16:31:45.898Z,14.37
2023-01-21T16:34:12.913Z,13.13
2023-01-21T16:36:42.100Z,13.77
2023-01-21T16:39:10.883Z,12.03
2023-01-21T16:41:40.464Z,13.50
2023-01-21T16:44:16.415Z,13.27
2023-01-21T16:46:46.229Z,12.67
2023-01-21T16:49:17.031Z,12.80
2023-01-21T16:52:04.501Z,13.33
2023-01-21T16:54:32.727Z,9.97
2023-01-21T16:57:20.261Z,11.10
2023-01-21T16:59:56.014Z,11.53
2023-01-21T17:02:28.163Z,11.57
2023-01-21T17:04:57.780Z,12.10
2023-01-21T17:07:30.260Z,11.60
2023-01-21T17:10:08.118Z,12.00
2023-01-21T17:12:36.478Z,11.53
2023-01-21T17:15:38.651Z,12.77
2023-01-21T17:18:10.513Z,13.23
2023-01-21T17:20:43.750Z,14.57
2023-01-21T17:23:18.811Z,13.47
2023-01-21T17:25:53.890Z,13.97
2023-01-21T17:28:40.211Z,16.73
2023-01-21T17:31:12.264Z,15.50
2023-01-21T17:33:39.235Z,16.13
2023-01-21T17:36:13.443Z,17.00
2023-01-21T17:38:49.013Z,17.00
2023-01-21T17:41:26.400Z,17.93
2023-01-21T17:43:58.372Z,17.97
2023-01-21T17:46:25.680Z,17.43
2023-01-21T17:49:02.076Z,17.30
2023-01-21T17:51:32.865Z,18.17
2023-01-21T17:54:29.807Z,18.50
2023-01-21T17:56:58.565Z,19.83
2023-01-21T17:59:38.412Z,19.63
2023-01-21T18:02:11.037Z,18.77
2023-01-21T18:04:38.146Z,18.73
2023-01-21T18:07:19.677Z,19.03
2023-01-21T18:09:46.561Z,17.83
2023-01-21T18:12:13.491Z,19.50
2023-01-21T18:14:41.797Z,18.60
2023-01-21T18:17:19.421Z,19.27
2023-01-21T18:19:47.129Z,17.57
2023-01-21T18:22:36.125Z,18.00
2023-01-21T18:25:05.264Z,18.10
2023-01-21T18:27:32.174Z,15.27
2023-01-21T18:29:59.346Z,17.50
2023-01-21T18:32:26.458Z,18.13
2023-01-21T18:34:53.313Z,17.30
2023-01-21T18:37:20.668Z,17.07
2023-01-21T18:39:47.794Z,17.37
2023-01-21T18:42:16.096Z,18.47
2023-01-21T18:44:43.229Z,16.20
2023-01-21T18:47:15.861Z,17.00
2023-01-21T18:49:43.235Z,17.67
2023-01-21T18:52:20.366Z,16.00
2023-01-21T18:54:47.750Z,17.53
2023-01-21T18:57:24.158Z,17.60
2023-01-21T18:59:51.355Z,17.27
2023-01-21T19:02:20.529Z,15.83
2023-01-21T19:04:48.353Z,16.90
2023-01-21T19:07:24.209Z,14.90
2023-01-21T19:09:51.265Z,17.23
2023-01-21T19:12:21.514Z,16.90
2023-01-21T19:14:49.095Z,16.97
2023-01-21T19:17:30.933Z,16.33
2023-01-21T19:19:58.101Z,17.03
2023-01-21T19:22:33.617Z,16.07
2023-01-21T19:25:00.750Z,16.27
2023-01-21T19:27:34.331Z,15.30
2023-01-21T19:30:02.354Z,15.93
2023-01-21T19:32:32.255Z,15.07
2023-01-21T19:35:00.919Z,16.53
2023-01-21T19:37:30.470Z,15.87
2023-01-21T19:40:00.308Z,16.03
2023-01-21T19:42:29.497Z,16.30
2023-01-21T19:44:57.149Z,16.50
2023-01-21T19:47:28.858Z,15.57
2023-01-21T19:49:55.787Z,15.77
2023-01-21T19:52:28.200Z,15.87
2023-01-21T19:54:58.128Z,16.37
2023-01-21T19:57:25.612Z,15.33
2023-01-21T19:59:53.223Z,15.33
2023-01-21T20:02:20.311Z,15.20
2023-01-21T20:04:48.319Z,15.83
2023-01-21T20:07:22.292Z,16.13
2023-01-21T20:09:54.794Z,15.67
2023-01-21T20:12:21.883Z,16.93
2023-01-21T20:14:48.872Z,17.10
2023-01-21T20:17:15.775Z,18.10
2023-01-21T20:19:45.722Z,16.23
2023-01-21T20:22:13.174Z,17.13
2023-01-21T20:24:39.959Z,16.73
2023-01-21T20:27:20.569Z,17.50
2023-01-21T20:30:02.763Z,17.03
2023-01-21T20:32:34.668Z,15.90
2023-01-21T20:35:03.632Z,17.67
2023-01-21T20:37:36.978Z,17.90
2023-01-21T20:40:13.941Z,17.83
2023-01-21T20:42:44.098Z,17.13
2023-01-21T20:45:24.675Z,18.03
2023-01-21T20:47:57.735Z,17.77
2023-01-21T20:50:36.125Z,17.37
2023-01-21T20:53:05.960Z,17.63
2023-01-21T20:55:36.123Z,17.87
2023-01-21T20:58:06.200Z,16.67
2023-01-21T21:00:34.977Z,18.57
2023-01-21T21:03:02.290Z,17.80
2023-01-21T21:05:31.365Z,17.07
2023-01-21T21:08:06.434Z,17.63
2023-01-21T21:10:41.758Z,16.97
2023-01-21T21:13:08.973Z,17.57
2023-01-21T21:15:37.096Z,17.30
2023-01-21T21:18:04.793Z,16.17
2023-01-21T21:20:38.847Z,16.53
2023-01-21T21:23:07.455Z,18.53
2023-01-21T21:25:40.795Z,15.83
2023-01-21T21:28:09.567Z,15.17
2023-01-21T21:30:36.780Z,16.27
2023-01-21T21:33:03.735Z,16.07
2023-01-21T21:35:37.780Z,16.37
2023-01-21T21:38:18.432Z,15.20
2023-01-21T21:40:47.341Z,14.13
2023-01-21T21:43:33.183Z,14.73
2023-01-21T21:46:28.539Z,13.80
2023-01-21T21:48:55.392Z,13.47
2023-01-21T21:51:23.030Z,13.67
2023-01-21T21:53:50.588Z,14.80
2023-01-21T21:56:25.640Z,13.23
2023-01-21T21:58:52.718Z,11.07
2023-01-21T22:01:29.513Z,13.03
2023-01-21T22:04:01.259Z,14.07
2023-01-21T22:06:28.519Z,12.63
2023-01-21T22:08:57.238Z,13.07
2023-01-21T22:11:24.531Z,9.70
2023-01-21T22:13:52.376Z,11.97
2023-01-21T22:16:25.191Z,11.50
2023-01-21T22:18:53.559Z,8.03
2023-01-21T22:21:22.974Z,11.63
2023-01-21T22:23:50.401Z,10.17
2023-01-21T22:26:20.514Z,11.47
2023-01-21T22:28:51.267Z,11.00
2023-01-21T22:31:29.564Z,10.63
2023-01-21T22:33:58.020Z,10.20
2023-01-21T22:36:27.178Z,9.87
2023-01-21T22:38:54.767Z,11.23
2023-01-21T22:41:23.983Z,10.73
2023-01-21T22:43:52.569Z,11.37
2023-01-21T22:46:30.044Z,9.43
2023-01-21T22:48:57.789Z,11.47
2023-01-21T22:51:24.588Z,10.53
2023-01-21T22:53:52.382Z,10.97
2023-01-21T22:56:39.878Z,11.93
2023-01-21T22:59:11.312Z,11.63
2023-01-21T23:01:38.571Z,11.20
2023-01-21T23:04:06.143Z,11.63
2023-01-21T23:06:33.007Z,12.23
2023-01-21T23:08:59.825Z,10.00
2023-01-21T23:11:26.679Z,10.60
2023-01-21T23:13:55.193Z,10.90
2023-01-21T23:16:22.218Z,10.83
2023-01-21T23:18:49.250Z,11.40
2023-01-21T23:21:21.636Z,11.53
2023-01-21T23:23:49.465Z,11.40
2023-01-21T23:26:19.293Z,11.40
2023-01-21T23:28:46.591Z,10.43
2023-01-21T23:31:15.584Z,10.97
2023-01-21T23:33:42.542Z,10.63
2023-01-21T23:36:12.809Z,9.30
2023-01-21T23:38:40.558Z,10.97
2023-01-21T23:41:09.467Z,9.27
2023-01-21T23:43:37.132Z,9.30
2023-01-21T23:46:08.865Z,9.23
2023-01-21T23:48:35.962Z,10.53
2023-01-21T23:51:07.370Z,10.40
2023-01-21T23:53:34.974Z,9.13
2023-01-21T23:56:05.748Z,9.63
2023-01-21T23:58:32.612Z,10.23
